Terminal Aerodrome Forecast
Issued by NWS

Home | Current Version | Previous Version | Text Only | Print | Product List | Glossary On
Versions: 1 2 3 4 5 6 7 8 9 10 11 12 13 14 15 16 17 18 19 20 21
000
FTUS44 KLIX 302000 AAA
TAFMSY
TAF AMD
KMSY 302050Z 3021/0118 04010KT P6SM FEW030
     FM010000 09002KT P6SM SCT025
     FM010900 00000KT 5SM BR SCT004
      TEMPO 0109/0112 BKN010
     FM011500 17003KT 5SM BR SCT005 BKN015=

USA.gov is the U.S. government's official web portal to all federal, state and local government web resources and services.